sensor_id;sensor_type;location;lat;lon;timestamp;P1;durP1;ratioP1;P2;durP2;ratioP2
22677;SDS011;26259;50.214;18.620;2023-03-13T00:01:42;18.17;;;8.17;;
22677;SDS011;26259;50.214;18.620;2023-03-13T00:17:07;11.43;;;5.93;;
22677;SDS011;26259;50.214;18.620;2023-03-13T00:19:32;9.00;;;6.03;;
22677;SDS011;26259;50.214;18.620;2023-03-13T00:21:58;12.03;;;7.20;;
22677;SDS011;26259;50.214;18.620;2023-03-13T00:24:24;14.97;;;8.80;;
22677;SDS011;26259;50.214;18.620;2023-03-13T00:26:49;17.87;;;8.30;;
22677;SDS011;26259;50.214;18.620;2023-03-13T00:29:15;12.73;;;6.47;;
22677;SDS011;26259;50.214;18.620;2023-03-13T00:34:16;9.43;;;5.60;;
22677;SDS011;26259;50.214;18.620;2023-03-13T00:57:24;8.67;;;5.73;;
22677;SDS011;26259;50.214;18.620;2023-03-13T01:07:36;8.30;;;5.17;;
22677;SDS011;26259;50.214;18.620;2023-03-13T01:10:01;11.30;;;7.20;;
22677;SDS011;26259;50.214;18.620;2023-03-13T01:17:37;10.20;;;6.27;;
22677;SDS011;26259;50.214;18.620;2023-03-13T01:48:40;11.13;;;5.53;;
22677;SDS011;26259;50.214;18.620;2023-03-13T02:09:17;7.03;;;5.10;;
22677;SDS011;26259;50.214;18.620;2023-03-13T02:11:51;7.93;;;5.77;;
22677;SDS011;26259;50.214;18.620;2023-03-13T02:14:21;7.47;;;5.57;;
22677;SDS011;26259;50.214;18.620;2023-03-13T02:16:51;7.57;;;5.63;;
22677;SDS011;26259;50.214;18.620;2023-03-13T02:24:50;7.80;;;5.73;;
22677;SDS011;26259;50.214;18.620;2023-03-13T02:27:28;8.60;;;5.93;;
22677;SDS011;26259;50.214;18.620;2023-03-13T02:32:25;10.17;;;7.10;;
22677;SDS011;26259;50.214;18.620;2023-03-13T02:34:53;10.00;;;9.00;;
22677;SDS011;26259;50.214;18.620;2023-03-13T02:37:25;10.73;;;9.20;;
22677;SDS011;26259;50.214;18.620;2023-03-13T02:45:04;8.93;;;6.63;;
22677;SDS011;26259;50.214;18.620;2023-03-13T02:50:05;8.33;;;6.40;;
22677;SDS011;26259;50.214;18.620;2023-03-13T02:52:32;9.77;;;6.73;;
22677;SDS011;26259;50.214;18.620;2023-03-13T03:07:59;9.60;;;6.20;;
22677;SDS011;26259;50.214;18.620;2023-03-13T03:31:48;12.67;;;9.63;;
22677;SDS011;26259;50.214;18.620;2023-03-13T03:36:46;8.57;;;6.70;;
22677;SDS011;26259;50.214;18.620;2023-03-13T03:41:47;10.30;;;6.30;;
22677;SDS011;26259;50.214;18.620;2023-03-13T03:46:48;8.43;;;6.50;;
22677;SDS011;26259;50.214;18.620;2023-03-13T03:51:48;7.87;;;6.03;;
22677;SDS011;26259;50.214;18.620;2023-03-13T03:54:14;13.47;;;6.23;;
22677;SDS011;26259;50.214;18.620;2023-03-13T03:56:40;8.77;;;6.90;;
22677;SDS011;26259;50.214;18.620;2023-03-13T03:59:05;10.87;;;5.87;;
22677;SDS011;26259;50.214;18.620;2023-03-13T04:06:41;9.97;;;7.30;;
22677;SDS011;26259;50.214;18.620;2023-03-13T04:11:42;13.30;;;7.07;;
22677;SDS011;26259;50.214;18.620;2023-03-13T04:29:40;10.83;;;7.63;;
22677;SDS011;26259;50.214;18.620;2023-03-13T04:32:06;11.60;;;6.93;;
22677;SDS011;26259;50.214;18.620;2023-03-13T04:34:32;12.63;;;7.70;;
22677;SDS011;26259;50.214;18.620;2023-03-13T05:05:21;10.97;;;7.03;;
22677;SDS011;26259;50.214;18.620;2023-03-13T05:23:19;10.70;;;7.13;;
22677;SDS011;26259;50.214;18.620;2023-03-13T05:25:44;14.30;;;8.37;;
22677;SDS011;26259;50.214;18.620;2023-03-13T05:48:53;10.40;;;6.17;;
22677;SDS011;26259;50.214;18.620;2023-03-13T05:51:19;10.97;;;6.03;;
22677;SDS011;26259;50.214;18.620;2023-03-13T05:53:44;11.33;;;7.07;;
22677;SDS011;26259;50.214;18.620;2023-03-13T05:56:10;8.73;;;6.00;;
22677;SDS011;26259;50.214;18.620;2023-03-13T05:58:35;9.77;;;5.77;;
22677;SDS011;26259;50.214;18.620;2023-03-13T06:01:08;12.53;;;6.90;;
22677;SDS011;26259;50.214;18.620;2023-03-13T06:03:34;12.53;;;7.47;;
22677;SDS011;26259;50.214;18.620;2023-03-13T06:26:43;13.47;;;8.27;;
22677;SDS011;26259;50.214;18.620;2023-03-13T06:29:09;14.77;;;10.07;;
22677;SDS011;26259;50.214;18.620;2023-03-13T06:36:46;13.50;;;7.23;;
22677;SDS011;26259;50.214;18.620;2023-03-13T06:41:47;14.93;;;7.40;;
22677;SDS011;26259;50.214;18.620;2023-03-13T06:46:48;14.43;;;7.93;;
22677;SDS011;26259;50.214;18.620;2023-03-13T06:49:13;13.77;;;7.97;;
22677;SDS011;26259;50.214;18.620;2023-03-13T07:12:22;10.10;;;7.70;;
22677;SDS011;26259;50.214;18.620;2023-03-13T07:32:55;13.00;;;6.97;;
22677;SDS011;26259;50.214;18.620;2023-03-13T07:37:57;12.57;;;6.60;;
22677;SDS011;26259;50.214;18.620;2023-03-13T11:27:09;8.10;;;3.67;;
22677;SDS011;26259;50.214;18.620;2023-03-13T11:29:57;6.60;;;3.07;;
22677;SDS011;26259;50.214;18.620;2023-03-13T18:01:39;14.00;;;6.60;;
22677;SDS011;26259;50.214;18.620;2023-03-13T18:04:06;10.37;;;5.43;;
22677;SDS011;26259;50.214;18.620;2023-03-13T18:06:39;10.67;;;5.63;;
22677;SDS011;26259;50.214;18.620;2023-03-13T18:09:09;12.63;;;6.37;;
22677;SDS011;26259;50.214;18.620;2023-03-13T18:11:43;9.97;;;5.40;;
22677;SDS011;26259;50.214;18.620;2023-03-13T18:14:09;10.60;;;4.97;;
22677;SDS011;26259;50.214;18.620;2023-03-13T18:16:36;10.20;;;4.23;;
22677;SDS011;26259;50.214;18.620;2023-03-13T18:19:09;9.10;;;4.57;;
22677;SDS011;26259;50.214;18.620;2023-03-13T18:21:39;9.00;;;5.43;;
22677;SDS011;26259;50.214;18.620;2023-03-13T18:24:08;10.83;;;6.13;;
22677;SDS011;26259;50.214;18.620;2023-03-13T19:00:14;11.43;;;4.50;;
22677;SDS011;26259;50.214;18.620;2023-03-13T19:02:44;7.00;;;4.20;;
22677;SDS011;26259;50.214;18.620;2023-03-13T19:05:10;8.03;;;4.43;;
22677;SDS011;26259;50.214;18.620;2023-03-13T19:07:36;12.13;;;6.83;;
22677;SDS011;26259;50.214;18.620;2023-03-13T19:10:01;13.67;;;5.30;;
22677;SDS011;26259;50.214;18.620;2023-03-13T19:12:27;10.53;;;4.97;;
22677;SDS011;26259;50.214;18.620;2023-03-13T19:14:53;7.63;;;5.20;;
22677;SDS011;26259;50.214;18.620;2023-03-13T19:17:23;10.97;;;5.40;;
22677;SDS011;26259;50.214;18.620;2023-03-13T19:19:53;10.77;;;4.77;;
22677;SDS011;26259;50.214;18.620;2023-03-13T19:22:23;8.20;;;4.13;;
22677;SDS011;26259;50.214;18.620;2023-03-13T19:24:49;10.43;;;5.77;;
22677;SDS011;26259;50.214;18.620;2023-03-13T19:27:15;11.90;;;4.37;;
22677;SDS011;26259;50.214;18.620;2023-03-13T19:29:41;9.10;;;4.57;;
22677;SDS011;26259;50.214;18.620;2023-03-13T19:32:11;6.07;;;3.47;;
22677;SDS011;26259;50.214;18.620;2023-03-13T19:34:38;6.53;;;4.20;;
22677;SDS011;26259;50.214;18.620;2023-03-13T19:37:04;8.80;;;4.57;;
22677;SDS011;26259;50.214;18.620;2023-03-13T19:39:29;9.73;;;3.77;;
22677;SDS011;26259;50.214;18.620;2023-03-13T19:41:55;8.30;;;4.03;;
22677;SDS011;26259;50.214;18.620;2023-03-13T19:44:20;9.37;;;4.10;;
22677;SDS011;26259;50.214;18.620;2023-03-13T19:46:46;5.33;;;3.73;;
22677;SDS011;26259;50.214;18.620;2023-03-13T19:49:14;7.17;;;4.00;;
22677;SDS011;26259;50.214;18.620;2023-03-13T19:51:43;6.67;;;3.60;;
22677;SDS011;26259;50.214;18.620;2023-03-13T19:54:10;7.13;;;3.63;;
22677;SDS011;26259;50.214;18.620;2023-03-13T19:56:36;9.60;;;3.80;;
22677;SDS011;26259;50.214;18.620;2023-03-13T19:59:05;12.40;;;4.53;;
22677;SDS011;26259;50.214;18.620;2023-03-13T20:01:34;14.77;;;5.53;;
22677;SDS011;26259;50.214;18.620;2023-03-13T20:03:59;7.40;;;3.73;;
22677;SDS011;26259;50.214;18.620;2023-03-13T20:06:29;8.60;;;4.17;;
22677;SDS011;26259;50.214;18.620;2023-03-13T20:08:57;7.07;;;3.27;;
22677;SDS011;26259;50.214;18.620;2023-03-13T20:11:24;9.43;;;3.90;;
22677;SDS011;26259;50.214;18.620;2023-03-13T20:13:51;10.17;;;4.10;;
22677;SDS011;26259;50.214;18.620;2023-03-13T20:16:17;9.13;;;4.20;;
22677;SDS011;26259;50.214;18.620;2023-03-13T20:18:44;9.43;;;4.57;;
22677;SDS011;26259;50.214;18.620;2023-03-13T20:21:13;7.93;;;4.20;;
22677;SDS011;26259;50.214;18.620;2023-03-13T20:23:40;10.23;;;4.47;;
22677;SDS011;26259;50.214;18.620;2023-03-13T20:26:10;8.13;;;3.73;;
22677;SDS011;26259;50.214;18.620;2023-03-13T20:28:38;8.83;;;4.50;;
22677;SDS011;26259;50.214;18.620;2023-03-13T20:31:05;10.57;;;4.83;;
22677;SDS011;26259;50.214;18.620;2023-03-13T20:33:32;10.83;;;4.57;;
22677;SDS011;26259;50.214;18.620;2023-03-13T20:36:01;11.13;;;3.83;;
22677;SDS011;26259;50.214;18.620;2023-03-13T20:38:34;6.07;;;3.80;;
22677;SDS011;26259;50.214;18.620;2023-03-13T20:41:01;8.07;;;3.47;;
22677;SDS011;26259;50.214;18.620;2023-03-13T20:43:27;10.83;;;3.80;;
22677;SDS011;26259;50.214;18.620;2023-03-13T20:45:53;9.10;;;4.23;;
22677;SDS011;26259;50.214;18.620;2023-03-13T20:48:19;8.47;;;4.63;;
22677;SDS011;26259;50.214;18.620;2023-03-13T20:50:44;17.87;;;6.13;;
22677;SDS011;26259;50.214;18.620;2023-03-13T20:53:13;15.13;;;7.73;;
22677;SDS011;26259;50.214;18.620;2023-03-13T20:55:39;18.27;;;9.23;;
22677;SDS011;26259;50.214;18.620;2023-03-13T20:58:05;14.93;;;8.20;;
22677;SDS011;26259;50.214;18.620;2023-03-13T21:00:31;14.10;;;6.70;;
22677;SDS011;26259;50.214;18.620;2023-03-13T21:02:57;12.17;;;6.53;;
22677;SDS011;26259;50.214;18.620;2023-03-13T21:05:23;13.20;;;5.50;;
22677;SDS011;26259;50.214;18.620;2023-03-13T21:07:48;13.13;;;6.40;;
22677;SDS011;26259;50.214;18.620;2023-03-13T21:10:14;12.93;;;6.33;;
22677;SDS011;26259;50.214;18.620;2023-03-13T21:12:42;14.80;;;6.40;;
22677;SDS011;26259;50.214;18.620;2023-03-13T21:15:08;14.40;;;6.97;;
22677;SDS011;26259;50.214;18.620;2023-03-13T21:17:34;14.43;;;6.30;;
22677;SDS011;26259;50.214;18.620;2023-03-13T21:20:00;17.70;;;7.40;;
22677;SDS011;26259;50.214;18.620;2023-03-13T21:22:26;17.33;;;9.60;;
22677;SDS011;26259;50.214;18.620;2023-03-13T21:24:53;21.30;;;11.80;;
22677;SDS011;26259;50.214;18.620;2023-03-13T21:27:19;20.23;;;10.80;;
22677;SDS011;26259;50.214;18.620;2023-03-13T21:29:44;22.33;;;12.60;;
22677;SDS011;26259;50.214;18.620;2023-03-13T21:32:14;22.33;;;12.60;;
22677;SDS011;26259;50.214;18.620;2023-03-13T21:34:40;15.17;;;8.47;;
22677;SDS011;26259;50.214;18.620;2023-03-13T21:37:08;16.73;;;8.67;;
22677;SDS011;26259;50.214;18.620;2023-03-13T21:39:34;14.50;;;7.90;;
22677;SDS011;26259;50.214;18.620;2023-03-13T21:42:04;20.07;;;9.67;;
22677;SDS011;26259;50.214;18.620;2023-03-13T21:44:32;16.20;;;7.93;;
22677;SDS011;26259;50.214;18.620;2023-03-13T21:46:58;20.30;;;9.20;;
22677;SDS011;26259;50.214;18.620;2023-03-13T21:49:23;19.47;;;11.37;;
22677;SDS011;26259;50.214;18.620;2023-03-13T21:51:49;16.00;;;8.63;;
22677;SDS011;26259;50.214;18.620;2023-03-13T21:54:14;17.70;;;8.07;;
22677;SDS011;26259;50.214;18.620;2023-03-13T21:56:40;16.17;;;8.47;;
22677;SDS011;26259;50.214;18.620;2023-03-13T21:59:06;16.97;;;7.47;;
22677;SDS011;26259;50.214;18.620;2023-03-13T22:01:32;16.00;;;7.33;;
22677;SDS011;26259;50.214;18.620;2023-03-13T22:03:57;15.23;;;7.27;;
22677;SDS011;26259;50.214;18.620;2023-03-13T22:06:23;17.27;;;7.57;;
22677;SDS011;26259;50.214;18.620;2023-03-13T22:08:48;16.57;;;7.90;;
22677;SDS011;26259;50.214;18.620;2023-03-13T22:11:15;17.37;;;7.93;;
22677;SDS011;26259;50.214;18.620;2023-03-13T22:13:40;14.43;;;7.43;;
22677;SDS011;26259;50.214;18.620;2023-03-13T22:16:06;17.63;;;8.20;;
22677;SDS011;26259;50.214;18.620;2023-03-13T22:18:34;26.00;;;10.53;;
22677;SDS011;26259;50.214;18.620;2023-03-13T22:20:59;20.27;;;9.87;;
22677;SDS011;26259;50.214;18.620;2023-03-13T22:23:25;19.07;;;9.50;;
22677;SDS011;26259;50.214;18.620;2023-03-13T22:25:53;27.67;;;10.70;;
22677;SDS011;26259;50.214;18.620;2023-03-13T22:28:20;21.77;;;9.50;;
22677;SDS011;26259;50.214;18.620;2023-03-13T22:30:46;26.47;;;10.50;;
22677;SDS011;26259;50.214;18.620;2023-03-13T22:33:12;22.30;;;9.50;;
22677;SDS011;26259;50.214;18.620;2023-03-13T22:35:37;21.80;;;9.23;;
22677;SDS011;26259;50.214;18.620;2023-03-13T22:38:04;21.63;;;9.30;;
22677;SDS011;26259;50.214;18.620;2023-03-13T22:40:30;24.10;;;10.50;;
22677;SDS011;26259;50.214;18.620;2023-03-13T22:42:56;28.37;;;11.57;;
22677;SDS011;26259;50.214;18.620;2023-03-13T22:45:22;23.40;;;11.83;;
22677;SDS011;26259;50.214;18.620;2023-03-13T22:47:47;25.33;;;12.27;;
22677;SDS011;26259;50.214;18.620;2023-03-13T22:50:13;27.43;;;12.23;;
22677;SDS011;26259;50.214;18.620;2023-03-13T22:52:39;26.70;;;11.90;;
22677;SDS011;26259;50.214;18.620;2023-03-13T22:55:05;32.17;;;13.33;;
22677;SDS011;26259;50.214;18.620;2023-03-13T22:57:31;32.10;;;14.67;;
22677;SDS011;26259;50.214;18.620;2023-03-13T22:59:57;28.67;;;13.53;;
22677;SDS011;26259;50.214;18.620;2023-03-13T23:02:24;30.63;;;15.07;;
22677;SDS011;26259;50.214;18.620;2023-03-13T23:04:50;32.70;;;14.93;;
22677;SDS011;26259;50.214;18.620;2023-03-13T23:07:16;42.27;;;20.17;;
22677;SDS011;26259;50.214;18.620;2023-03-13T23:09:42;46.23;;;20.80;;
22677;SDS011;26259;50.214;18.620;2023-03-13T23:12:08;51.43;;;21.33;;
22677;SDS011;26259;50.214;18.620;2023-03-13T23:14:34;47.87;;;21.30;;
22677;SDS011;26259;50.214;18.620;2023-03-13T23:16:59;25.93;;;12.20;;
22677;SDS011;26259;50.214;18.620;2023-03-13T23:19:25;27.30;;;14.00;;
22677;SDS011;26259;50.214;18.620;2023-03-13T23:21:51;31.03;;;14.07;;
22677;SDS011;26259;50.214;18.620;2023-03-13T23:24:16;70.80;;;26.33;;
22677;SDS011;26259;50.214;18.620;2023-03-13T23:26:42;51.63;;;22.43;;
22677;SDS011;26259;50.214;18.620;2023-03-13T23:29:07;49.70;;;21.97;;
22677;SDS011;26259;50.214;18.620;2023-03-13T23:31:33;52.13;;;22.30;;
22677;SDS011;26259;50.214;18.620;2023-03-13T23:33:59;56.13;;;23.57;;
22677;SDS011;26259;50.214;18.620;2023-03-13T23:36:25;46.83;;;20.90;;
22677;SDS011;26259;50.214;18.620;2023-03-13T23:38:51;34.83;;;15.33;;
22677;SDS011;26259;50.214;18.620;2023-03-13T23:41:17;35.70;;;17.00;;
22677;SDS011;26259;50.214;18.620;2023-03-13T23:43:44;35.53;;;16.47;;
22677;SDS011;26259;50.214;18.620;2023-03-13T23:46:13;35.13;;;14.83;;
22677;SDS011;26259;50.214;18.620;2023-03-13T23:48:40;28.63;;;11.33;;
22677;SDS011;26259;50.214;18.620;2023-03-13T23:51:06;25.57;;;11.20;;
22677;SDS011;26259;50.214;18.620;2023-03-13T23:53:35;27.17;;;10.80;;
22677;SDS011;26259;50.214;18.620;2023-03-13T23:56:02;26.40;;;10.17;;
22677;SDS011;26259;50.214;18.620;2023-03-13T23:58:27;22.67;;;9.87;;
